Archival Weather

Half Moon Bay

Half Moon Bay, California (KHAF)

Report from: Thursday, September 21, 2023 1:55 PM PDT
Current time: Tuesday, February 27, 2024 2:07 AM PST

Current weather – Weather history – Daily summaries
Weather forecast

Present weatherHaze
Temperature18.0°C (64.4°F)
Dew point13.0°C (55.4°F)
Winds 7 kts (3.6 m/s, 8.1 mph) South (190°)
Visibility4 mi. (6.4 km)
Clouds Sky clear
Altimeter29.92 in.Hg (1013 mB)
Relative humidity73 %
Density altitude563 ft. (172 m)
Remarks Fully automated report
Automated weather observing station with precipitation discriminator
Flight conditions Marginal Visual Meteorological Conditions
Raw dataKHAF 212055Z AUTO 19007KT 4SM HZ CLR 18/13 A2992 RMK AO2
An error has occurred. This application may no longer respond until reloaded. Reload 🗙